createdAt,value
2023-02-26T00:01:25.743Z,93935.84
2023-02-26T00:03:54.521Z,93933.63
2023-02-26T00:06:21.549Z,93939.41
2023-02-26T00:08:48.456Z,93931.59
2023-02-26T00:11:16.143Z,93926.69
2023-02-26T00:13:44.516Z,93924.69
2023-02-26T00:16:34.731Z,93917.91
2023-02-26T00:19:04.642Z,93918.13
2023-02-26T00:21:32.429Z,93914.13
2023-02-26T00:24:00.555Z,93917.84
2023-02-26T00:26:30.301Z,93914.50
2023-02-26T00:28:57.666Z,93917.00
2023-02-26T00:31:24.976Z,93908.16
2023-02-26T00:33:56.584Z,93912.59
2023-02-26T00:36:25.388Z,93924.59
2023-02-26T00:39:19.905Z,93914.13
2023-02-26T00:41:48.118Z,93901.41
2023-02-26T00:44:15.147Z,93901.09
2023-02-26T00:46:49.820Z,93894.69
2023-02-26T00:49:29.321Z,93892.44
2023-02-26T00:52:01.799Z,93896.56
2023-02-26T00:54:30.733Z,93889.81
2023-02-26T00:56:59.427Z,93880.97
2023-02-26T00:59:26.651Z,93879.28
2023-02-26T01:01:54.421Z,93877.22
2023-02-26T01:04:24.033Z,93894.97
2023-02-26T01:06:54.644Z,93888.03
2023-02-26T01:09:28.843Z,93876.31
2023-02-26T01:12:01.060Z,93863.94
2023-02-26T01:14:28.999Z,93861.72
2023-02-26T01:17:33.944Z,93860.38
2023-02-26T01:20:20.766Z,93867.34
2023-02-26T01:23:12.338Z,93848.19
2023-02-26T01:25:50.207Z,93840.72
2023-02-26T01:28:17.802Z,93828.53
2023-02-26T01:30:46.266Z,93837.72
2023-02-26T01:33:30.029Z,93828.78
2023-02-26T01:36:06.970Z,93803.66
2023-02-26T01:38:43.342Z,93823.78
2023-02-26T01:41:37.386Z,93789.78
2023-02-26T01:44:08.179Z,93800.31
2023-02-26T01:46:43.660Z,93805.97
2023-02-26T01:49:15.918Z,93801.56
2023-02-26T01:51:56.772Z,93801.56
2023-02-26T01:54:28.254Z,93801.13
2023-02-26T01:57:21.501Z,93792.34
2023-02-26T01:59:51.544Z,93821.13
2023-02-26T02:02:23.563Z,93805.09
2023-02-26T02:04:51.319Z,93803.25
2023-02-26T02:07:19.188Z,93788.41
2023-02-26T02:09:47.662Z,93795.56
2023-02-26T02:12:29.267Z,93817.47
2023-02-26T02:15:11.896Z,93810.28
2023-02-26T02:18:10.491Z,93801.44
2023-02-26T02:20:52.442Z,93784.75
2023-02-26T02:23:45.117Z,93800.09
2023-02-26T02:26:44.354Z,93791.84
2023-02-26T02:29:32.122Z,93785.19
2023-02-26T02:32:10.964Z,93801.28
2023-02-26T02:34:46.939Z,93794.34
2023-02-26T02:37:35.631Z,93782.53
2023-02-26T02:40:25.626Z,93782.31
2023-02-26T02:42:55.792Z,93781.41
2023-02-26T02:45:58.480Z,93809.41
2023-02-26T02:48:33.172Z,93793.34
2023-02-26T02:51:26.243Z,93808.41
2023-02-26T02:54:00.174Z,93823.88
2023-02-26T02:56:34.862Z,93827.66
2023-02-26T02:59:10.966Z,93801.72
2023-02-26T03:01:40.434Z,93789.84
2023-02-26T03:04:15.118Z,93798.78
2023-02-26T03:06:42.983Z,93801.53
2023-02-26T03:09:11.134Z,93819.00
2023-02-26T03:11:41.523Z,93826.78
2023-02-26T03:14:10.313Z,93824.16
2023-02-26T03:17:06.405Z,93802.00
2023-02-26T03:19:48.784Z,93809.28
2023-02-26T03:22:34.969Z,93780.75
2023-02-26T03:25:02.166Z,93813.19
2023-02-26T03:27:38.081Z,93807.53
2023-02-26T03:30:11.439Z,93808.44
2023-02-26T03:33:05.946Z,93797.97
2023-02-26T03:35:44.462Z,93809.97
2023-02-26T03:38:17.668Z,93820.38
2023-02-26T03:40:51.061Z,93804.44
2023-02-26T03:43:45.680Z,93802.88
2023-02-26T03:46:18.172Z,93781.53
2023-02-26T03:48:48.909Z,93805.22
2023-02-26T03:51:15.905Z,93797.47
2023-02-26T03:54:20.139Z,93763.63
2023-02-26T03:56:54.305Z,93796.03
2023-02-26T03:59:39.749Z,93790.25
2023-02-26T04:02:39.021Z,93776.09
2023-02-26T04:05:21.359Z,93784.31
2023-02-26T04:07:49.747Z,93776.13
2023-02-26T04:10:21.621Z,93795.59
2023-02-26T04:12:50.600Z,93794.63
2023-02-26T04:15:17.324Z,93765.72
2023-02-26T04:17:44.081Z,93771.28
2023-02-26T04:20:11.780Z,93775.59
2023-02-26T04:22:39.426Z,93772.16
2023-02-26T04:25:06.626Z,93781.31
2023-02-26T04:27:33.708Z,93768.81
2023-02-26T04:30:01.490Z,93763.53
2023-02-26T04:32:29.911Z,93773.25
2023-02-26T04:34:57.715Z,93754.09
2023-02-26T04:37:24.649Z,93739.97
2023-02-26T04:39:51.716Z,93738.75
2023-02-26T04:42:18.669Z,93725.16
2023-02-26T04:44:45.523Z,93727.50
2023-02-26T04:47:13.631Z,93747.97
2023-02-26T04:49:40.709Z,93739.38
2023-02-26T04:52:08.008Z,93736.50
2023-02-26T04:54:35.003Z,93729.44
2023-02-26T04:57:01.901Z,93721.97
2023-02-26T04:59:28.669Z,93737.63
2023-02-26T05:01:57.115Z,93747.28
2023-02-26T05:04:23.887Z,93754.00
2023-02-26T05:06:54.218Z,93748.75
2023-02-26T05:09:21.347Z,93724.03
2023-02-26T05:11:48.983Z,93745.13
2023-02-26T05:14:17.354Z,93736.78
2023-02-26T05:16:47.442Z,93715.09
2023-02-26T05:19:14.207Z,93730.03
2023-02-26T05:21:41.073Z,93730.56
2023-02-26T05:24:08.172Z,93714.44
2023-02-26T05:26:34.986Z,93723.91
2023-02-26T05:29:02.458Z,93720.16
2023-02-26T05:31:30.009Z,93738.34
2023-02-26T05:33:57.050Z,93720.84
2023-02-26T05:36:24.062Z,93732.31
2023-02-26T05:38:51.159Z,93734.31
2023-02-26T05:41:17.907Z,93732.31
2023-02-26T05:43:44.689Z,93725.72
2023-02-26T05:46:11.993Z,93726.13
2023-02-26T05:48:38.706Z,93719.28
2023-02-26T05:51:06.153Z,93742.50
2023-02-26T05:53:32.927Z,93741.19
2023-02-26T05:55:59.811Z,93745.59
2023-02-26T05:58:26.446Z,93727.72
2023-02-26T06:00:53.382Z,93737.19
2023-02-26T06:03:20.152Z,93744.28
2023-02-26T06:05:47.150Z,93729.78
2023-02-26T06:08:15.604Z,93744.69
2023-02-26T06:10:42.809Z,93745.50
2023-02-26T06:13:09.663Z,93735.88
2023-02-26T06:15:36.446Z,93727.22
2023-02-26T06:18:03.298Z,93734.78
2023-02-26T06:20:30.328Z,93757.66
2023-02-26T06:22:57.131Z,93756.09
2023-02-26T06:25:23.894Z,93753.84
2023-02-26T06:27:50.847Z,93751.03
2023-02-26T06:30:18.334Z,93743.56
2023-02-26T06:32:45.325Z,93744.16
2023-02-26T06:35:12.054Z,93747.75
2023-02-26T06:37:38.848Z,93757.09
2023-02-26T06:40:06.380Z,93780.53
2023-02-26T06:42:33.084Z,93757.47
2023-02-26T06:44:59.791Z,93747.44
2023-02-26T06:47:26.628Z,93738.88
2023-02-26T06:49:53.343Z,93754.00
2023-02-26T06:52:20.208Z,93748.91
2023-02-26T06:54:46.928Z,93795.97
2023-02-26T06:57:13.817Z,93740.56
2023-02-26T06:59:40.510Z,93739.66
2023-02-26T07:02:07.348Z,93753.22
2023-02-26T07:04:34.093Z,93715.31
2023-02-26T07:07:00.863Z,93716.91
2023-02-26T07:09:27.580Z,93739.13
2023-02-26T07:11:54.318Z,93733.16
2023-02-26T07:14:21.463Z,93749.34
2023-02-26T07:16:48.288Z,93736.97
2023-02-26T07:19:15.266Z,93715.25
2023-02-26T07:21:43.977Z,93732.50
2023-02-26T07:24:10.719Z,93706.53
2023-02-26T07:26:39.307Z,93710.78
2023-02-26T07:29:06.219Z,93733.13
2023-02-26T07:31:33.155Z,93737.41
2023-02-26T07:33:59.940Z,93749.88
2023-02-26T07:36:27.193Z,93730.69
2023-02-26T07:38:54.192Z,93734.50
2023-02-26T07:41:21.143Z,93751.94
2023-02-26T07:43:47.889Z,93715.63
2023-02-26T07:46:14.708Z,93772.13
2023-02-26T07:48:41.527Z,93751.00
2023-02-26T07:51:08.547Z,93734.78
2023-02-26T07:53:35.485Z,93745.41
2023-02-26T07:56:02.431Z,93744.41
2023-02-26T07:58:30.114Z,93720.75
2023-02-26T08:00:58.596Z,93745.69
2023-02-26T08:03:25.341Z,93751.88
2023-02-26T08:05:52.115Z,93765.50
2023-02-26T08:08:18.907Z,93749.59
2023-02-26T08:10:45.571Z,93747.16
2023-02-26T08:13:12.281Z,93759.75
2023-02-26T08:15:39.165Z,93725.94
2023-02-26T08:18:05.935Z,93753.53
2023-02-26T08:20:32.658Z,93734.75
2023-02-26T08:22:59.417Z,93743.78
2023-02-26T08:25:26.443Z,93734.50
2023-02-26T08:27:53.487Z,93750.34
2023-02-26T08:30:20.689Z,93762.25
2023-02-26T08:32:47.471Z,93774.50
2023-02-26T08:35:14.317Z,93745.16
2023-02-26T08:37:41.061Z,93765.72
2023-02-26T08:40:13.491Z,93782.69
2023-02-26T08:42:42.668Z,93794.94
2023-02-26T08:45:10.052Z,93764.56
2023-02-26T08:47:53.989Z,93765.03
2023-02-26T08:50:24.887Z,93780.84
2023-02-26T08:52:53.183Z,93764.34
2023-02-26T08:55:21.729Z,93777.81
2023-02-26T08:57:48.701Z,93775.13
2023-02-26T09:00:19.398Z,93762.19
2023-02-26T09:02:46.387Z,93769.63
2023-02-26T09:05:15.389Z,93769.88
2023-02-26T09:07:43.743Z,93757.25
2023-02-26T09:10:11.655Z,93759.22
2023-02-26T09:12:38.760Z,93763.72
2023-02-26T09:15:06.884Z,93768.06
2023-02-26T09:17:34.193Z,93777.84
2023-02-26T09:20:01.409Z,93748.44
2023-02-26T09:22:28.416Z,93749.97
2023-02-26T09:24:55.200Z,93742.69
2023-02-26T09:27:22.336Z,93743.38
2023-02-26T09:29:49.125Z,93744.44
2023-02-26T09:32:15.988Z,93750.00
2023-02-26T09:34:42.848Z,93753.22
2023-02-26T09:37:09.999Z,93731.09
2023-02-26T09:39:37.026Z,93736.19
2023-02-26T09:42:49.375Z,93762.66
2023-02-26T09:45:27.210Z,93759.16
2023-02-26T09:47:55.109Z,93756.34
2023-02-26T09:50:26.479Z,93768.63
2023-02-26T09:53:20.470Z,93752.06
2023-02-26T09:55:50.686Z,93750.75
2023-02-26T09:58:26.514Z,93750.47
2023-02-26T10:01:08.208Z,93757.41
2023-02-26T10:03:53.179Z,93743.50
2023-02-26T10:06:59.310Z,93721.81
2023-02-26T10:09:47.146Z,93738.34
2023-02-26T10:12:19.317Z,93772.34
2023-02-26T10:14:55.099Z,93751.31
2023-02-26T10:17:31.638Z,93749.75
2023-02-26T10:20:06.285Z,93742.00
2023-02-26T10:22:40.022Z,93735.63
2023-02-26T10:25:10.812Z,93764.88
2023-02-26T10:27:45.015Z,93733.09
2023-02-26T10:30:41.863Z,93751.09
2023-02-26T10:33:38.753Z,93730.66
2023-02-26T10:36:12.766Z,93754.47
2023-02-26T10:38:40.517Z,93734.56
2023-02-26T10:41:15.829Z,93708.97
2023-02-26T10:43:48.010Z,93701.50
2023-02-26T10:46:20.464Z,93687.47
2023-02-26T10:49:04.149Z,93692.13
2023-02-26T10:51:39.034Z,93686.63
2023-02-26T10:54:30.359Z,93728.00
2023-02-26T10:56:57.114Z,93696.16
2023-02-26T10:59:24.390Z,93685.13
2023-02-26T11:01:52.687Z,93686.22
2023-02-26T11:04:26.178Z,93688.88
2023-02-26T11:06:59.475Z,93686.69
2023-02-26T11:09:37.863Z,93678.13
2023-02-26T11:12:14.790Z,93698.59
2023-02-26T11:14:46.961Z,93692.50
2023-02-26T11:17:29.654Z,93691.78
2023-02-26T11:20:01.036Z,93693.53
2023-02-26T11:22:32.310Z,93666.56
2023-02-26T11:24:59.739Z,93681.16
2023-02-26T11:27:36.938Z,93690.66
2023-02-26T11:30:11.970Z,93696.84
2023-02-26T11:32:39.596Z,93713.06
2023-02-26T11:35:10.340Z,93684.31
2023-02-26T11:37:42.129Z,93694.38
2023-02-26T11:40:22.213Z,93717.03
2023-02-26T11:43:00.606Z,93700.34
2023-02-26T11:45:28.514Z,93699.81
2023-02-26T11:48:06.463Z,93702.59
2023-02-26T11:50:43.612Z,93713.75
2023-02-26T11:53:47.544Z,93709.38
2023-02-26T11:56:20.570Z,93722.16
2023-02-26T11:58:52.895Z,93733.25
2023-02-26T12:01:27.204Z,93745.91
2023-02-26T12:03:59.222Z,93731.63
2023-02-26T12:06:26.008Z,93762.59
2023-02-26T12:08:54.087Z,93770.38
2023-02-26T12:11:43.861Z,93765.31
2023-02-26T12:14:35.788Z,93761.13
2023-02-26T12:17:17.371Z,93758.34
2023-02-26T12:20:15.428Z,93752.56
2023-02-26T12:23:00.941Z,93744.06
2023-02-26T12:25:27.811Z,93770.41
2023-02-26T12:28:26.744Z,93754.19
2023-02-26T12:31:02.675Z,93780.16
2023-02-26T12:34:08.155Z,93759.41
2023-02-26T12:37:11.959Z,93773.09
2023-02-26T12:40:01.215Z,93769.66
2023-02-26T12:42:49.219Z,93778.22
2023-02-26T12:45:55.812Z,93726.84
2023-02-26T12:48:32.794Z,93745.44
2023-02-26T12:51:22.354Z,93765.16
2023-02-26T12:54:07.467Z,93779.09
2023-02-26T12:56:47.500Z,93765.09
2023-02-26T12:59:48.299Z,93764.16
2023-02-26T13:02:43.110Z,93772.97
2023-02-26T13:05:40.320Z,93760.25
2023-02-26T13:08:09.599Z,93754.97
2023-02-26T13:10:49.162Z,93749.09
2023-02-26T13:13:21.424Z,93756.53
2023-02-26T13:15:57.120Z,93752.63
2023-02-26T13:18:31.198Z,93742.78
2023-02-26T13:21:07.462Z,93759.72
2023-02-26T13:23:46.368Z,93776.13
2023-02-26T13:26:14.700Z,93769.09
2023-02-26T13:28:45.762Z,93780.00
2023-02-26T13:31:21.723Z,93774.69
2023-02-26T13:33:50.749Z,93769.81
2023-02-26T13:36:20.774Z,93767.78
2023-02-26T13:38:57.776Z,93756.25
2023-02-26T13:41:43.954Z,93753.47
2023-02-26T13:44:32.083Z,93759.34
2023-02-26T13:47:21.038Z,93776.69
2023-02-26T13:49:59.610Z,93769.75
2023-02-26T13:52:32.241Z,93759.47
2023-02-26T13:54:59.638Z,93761.97
2023-02-26T13:57:34.746Z,93771.59
2023-02-26T14:00:12.727Z,93766.16
2023-02-26T14:02:51.078Z,93766.78
2023-02-26T14:05:36.140Z,93751.91
2023-02-26T14:08:21.018Z,93744.59
2023-02-26T14:11:24.860Z,93760.09
2023-02-26T14:14:07.239Z,93774.88
2023-02-26T14:16:40.939Z,93775.31
2023-02-26T14:19:13.973Z,93767.84
2023-02-26T14:22:19.632Z,93780.16
2023-02-26T14:24:55.246Z,93783.44
2023-02-26T14:27:24.042Z,93771.84
2023-02-26T14:29:53.733Z,93765.34
2023-02-26T14:32:31.421Z,93764.28
2023-02-26T14:35:10.335Z,93797.75
2023-02-26T14:37:40.088Z,93795.69
2023-02-26T14:40:17.998Z,93792.28
2023-02-26T14:42:52.272Z,93800.41
2023-02-26T14:45:30.654Z,93784.66
2023-02-26T14:48:00.747Z,93793.34
2023-02-26T14:50:39.549Z,93814.94
2023-02-26T14:53:30.696Z,93806.16
2023-02-26T14:56:29.705Z,93792.69
2023-02-26T14:59:22.731Z,93801.72
2023-02-26T15:02:01.286Z,93805.53
2023-02-26T15:04:47.305Z,93805.16
2023-02-26T15:07:59.037Z,93781.72
2023-02-26T15:10:55.107Z,93813.56
2023-02-26T15:13:28.826Z,93784.91
2023-02-26T15:16:04.537Z,93798.50
2023-02-26T15:18:59.815Z,93773.19
2023-02-26T15:21:35.139Z,93797.06
2023-02-26T15:24:04.112Z,93818.97
2023-02-26T15:26:42.990Z,93819.06
2023-02-26T15:29:13.636Z,93826.22
2023-02-26T15:31:53.342Z,93827.56
2023-02-26T15:34:21.718Z,93814.03
2023-02-26T15:36:53.498Z,93844.75
2023-02-26T15:39:23.861Z,93826.59
2023-02-26T15:41:52.690Z,93833.47
2023-02-26T15:44:31.248Z,93851.22
2023-02-26T15:47:03.508Z,93855.66
2023-02-26T15:49:35.756Z,93842.88
2023-02-26T15:52:04.480Z,93870.53
2023-02-26T15:55:06.049Z,93827.31
2023-02-26T15:57:33.021Z,93864.84
2023-02-26T16:00:16.573Z,93887.09
2023-02-26T16:02:45.796Z,93865.91
2023-02-26T16:05:14.765Z,93887.16
2023-02-26T16:07:42.044Z,93879.03
2023-02-26T16:10:17.842Z,93901.72
2023-02-26T16:12:49.214Z,93904.88
2023-02-26T16:15:31.670Z,93868.28
2023-02-26T16:18:00.519Z,93883.03
2023-02-26T16:20:32.085Z,93890.25
2023-02-26T16:23:04.075Z,93905.84
2023-02-26T16:25:35.699Z,93916.56
2023-02-26T16:28:06.028Z,93888.28
2023-02-26T16:30:38.788Z,93909.88
2023-02-26T16:33:12.111Z,93917.91
2023-02-26T16:35:43.970Z,93893.28
2023-02-26T16:38:20.997Z,93890.59
2023-02-26T16:40:57.632Z,93905.72
2023-02-26T16:43:35.386Z,93902.09
2023-02-26T16:46:05.385Z,93911.78
2023-02-26T16:48:47.686Z,93938.81
2023-02-26T16:51:25.938Z,93935.63
2023-02-26T16:54:15.365Z,93953.94
2023-02-26T16:56:43.220Z,93951.44
2023-02-26T16:59:30.445Z,93906.28
2023-02-26T17:02:05.581Z,93925.75
2023-02-26T17:04:36.088Z,93927.84
2023-02-26T17:07:14.626Z,93922.13
2023-02-26T17:09:49.394Z,93930.44
2023-02-26T17:12:28.509Z,93961.91
2023-02-26T17:14:57.835Z,93975.69
2023-02-26T17:17:25.762Z,93969.97
2023-02-26T17:19:53.103Z,93980.72
2023-02-26T17:22:29.037Z,93956.63
2023-02-26T17:24:56.137Z,93926.56
2023-02-26T17:27:33.935Z,93949.97
2023-02-26T17:30:04.349Z,93961.31
2023-02-26T17:32:31.849Z,93977.38
2023-02-26T17:34:59.395Z,93969.72
2023-02-26T17:37:33.411Z,93951.91
2023-02-26T17:40:00.612Z,93953.41
2023-02-26T17:42:27.421Z,93976.28
2023-02-26T17:44:56.765Z,93990.06
2023-02-26T17:47:26.794Z,93960.34
2023-02-26T17:49:54.289Z,93963.84
2023-02-26T17:52:21.197Z,93969.97
2023-02-26T17:54:48.059Z,93983.63
2023-02-26T17:57:22.884Z,93998.28
2023-02-26T17:59:49.833Z,93984.88
2023-02-26T18:02:27.297Z,93952.97
2023-02-26T18:04:54.657Z,93971.22
2023-02-26T18:07:23.528Z,93976.09
2023-02-26T18:09:50.484Z,94004.47
2023-02-26T18:12:20.680Z,93981.22
2023-02-26T18:14:48.168Z,93992.66
2023-02-26T18:17:20.716Z,93992.22
2023-02-26T18:19:49.513Z,93945.94
2023-02-26T18:22:18.897Z,93962.22
2023-02-26T18:24:46.412Z,93952.22
2023-02-26T18:27:19.484Z,93993.78
2023-02-26T18:29:47.023Z,93993.19
2023-02-26T18:32:17.070Z,93974.38
2023-02-26T18:34:44.564Z,93978.50
2023-02-26T18:37:17.851Z,94009.34
2023-02-26T18:39:44.947Z,94014.75
2023-02-26T18:42:18.781Z,93982.06
2023-02-26T18:44:45.589Z,93995.81
2023-02-26T18:47:12.653Z,94018.56
2023-02-26T18:49:39.374Z,93997.75
2023-02-26T18:52:06.148Z,94011.88
2023-02-26T18:54:32.926Z,94009.50
2023-02-26T18:56:59.570Z,94018.16
2023-02-26T18:59:26.404Z,94023.69
2023-02-26T19:01:53.466Z,94030.53
2023-02-26T19:04:20.232Z,94030.06
2023-02-26T19:06:48.085Z,94039.22
2023-02-26T19:09:14.950Z,94034.47
2023-02-26T19:11:42.604Z,94037.34
2023-02-26T19:14:09.481Z,94051.34
2023-02-26T19:16:39.230Z,94037.50
2023-02-26T19:19:07.071Z,94043.72
2023-02-26T19:21:39.273Z,94049.78
2023-02-26T19:24:08.969Z,94058.38
2023-02-26T19:26:36.542Z,94047.91
2023-02-26T19:29:05.912Z,94064.59
2023-02-26T19:31:33.246Z,94066.31
2023-02-26T19:34:00.142Z,94077.47
2023-02-26T19:36:27.648Z,94088.13
2023-02-26T19:38:54.366Z,94058.19
2023-02-26T19:41:21.087Z,94081.47
2023-02-26T19:43:48.075Z,94085.22
2023-02-26T19:46:15.837Z,94087.19
2023-02-26T19:48:43.258Z,94082.44
2023-02-26T19:51:10.108Z,94049.94
2023-02-26T19:53:37.248Z,94072.31
2023-02-26T19:56:05.602Z,94088.91
2023-02-26T19:58:34.513Z,94080.16
2023-02-26T20:01:03.096Z,94085.19
2023-02-26T20:03:30.674Z,94082.16
2023-02-26T20:05:58.204Z,94098.44
2023-02-26T20:08:27.764Z,94117.16
2023-02-26T20:10:56.788Z,94135.84
2023-02-26T20:13:26.890Z,94108.41
2023-02-26T20:15:53.757Z,94123.25
2023-02-26T20:18:20.651Z,94108.91
2023-02-26T20:20:47.824Z,94100.50
2023-02-26T20:23:14.561Z,94147.97
2023-02-26T20:25:43.414Z,94150.97
2023-02-26T20:28:11.003Z,94126.75
2023-02-26T20:30:37.690Z,94123.38
2023-02-26T20:33:04.839Z,94147.94
2023-02-26T20:35:31.685Z,94174.34
2023-02-26T20:37:58.493Z,94181.66
2023-02-26T20:40:25.221Z,94139.25
2023-02-26T20:42:52.531Z,94153.38
2023-02-26T20:45:19.407Z,94159.03
2023-02-26T20:47:46.155Z,94147.50
2023-02-26T20:50:13.018Z,94159.22
2023-02-26T20:52:39.896Z,94158.63
2023-02-26T20:55:07.092Z,94174.00
2023-02-26T20:57:35.410Z,94170.22
2023-02-26T21:00:10.269Z,94156.47
2023-02-26T21:02:38.637Z,94174.75
2023-02-26T21:05:06.300Z,94181.13
2023-02-26T21:07:33.542Z,94179.09
2023-02-26T21:10:00.291Z,94168.72
2023-02-26T21:12:31.469Z,94177.41
2023-02-26T21:14:58.220Z,94171.66
2023-02-26T21:17:26.485Z,94175.81
2023-02-26T21:19:53.446Z,94178.44
2023-02-26T21:22:20.917Z,94178.25
2023-02-26T21:24:47.861Z,94167.03
2023-02-26T21:27:16.782Z,94183.50
2023-02-26T21:29:44.098Z,94177.97
2023-02-26T21:32:11.436Z,94174.72
2023-02-26T21:34:38.342Z,94176.16
2023-02-26T21:37:09.391Z,94152.59
2023-02-26T21:39:40.507Z,94170.72
2023-02-26T21:42:10.607Z,94173.47
2023-02-26T21:44:37.528Z,94198.28
2023-02-26T21:47:05.042Z,94198.31
2023-02-26T21:49:32.287Z,94193.94
2023-02-26T21:52:00.487Z,94200.16
2023-02-26T21:54:27.532Z,94193.47
2023-02-26T21:56:54.486Z,94177.56
2023-02-26T21:59:23.214Z,94191.31
2023-02-26T22:01:50.818Z,94185.88
2023-02-26T22:04:18.339Z,94193.16
2023-02-26T22:06:45.444Z,94194.22
2023-02-26T22:09:12.484Z,94194.66
2023-02-26T22:11:39.577Z,94190.56
2023-02-26T22:14:06.363Z,94190.84
2023-02-26T22:16:33.330Z,94201.41
2023-02-26T22:19:00.002Z,94186.47
2023-02-26T22:21:27.181Z,94196.91
2023-02-26T22:23:54.192Z,94184.59
2023-02-26T22:26:21.307Z,94203.78
2023-02-26T22:28:48.163Z,94198.16
2023-02-26T22:31:15.018Z,94200.63
2023-02-26T22:33:41.798Z,94202.06
2023-02-26T22:36:08.540Z,94200.63
2023-02-26T22:38:35.498Z,94199.09
2023-02-26T22:41:02.280Z,94203.75
2023-02-26T22:43:29.197Z,94207.69
2023-02-26T22:45:55.922Z,94223.09
2023-02-26T22:48:22.676Z,94210.75
2023-02-26T22:50:50.776Z,94188.19
2023-02-26T22:53:17.737Z,94180.88
2023-02-26T22:55:44.461Z,94178.50
2023-02-26T22:58:11.372Z,94218.38
2023-02-26T23:00:38.130Z,94241.06
2023-02-26T23:03:04.999Z,94213.44
2023-02-26T23:05:31.744Z,94207.19
2023-02-26T23:07:58.632Z,94211.84
2023-02-26T23:10:25.493Z,94194.16
2023-02-26T23:12:52.448Z,94192.28
2023-02-26T23:15:19.482Z,94189.00
2023-02-26T23:17:46.180Z,94204.63
2023-02-26T23:20:14.785Z,94211.84
2023-02-26T23:22:43.917Z,94199.59
2023-02-26T23:25:12.185Z,94208.59
2023-02-26T23:27:40.670Z,94233.97
2023-02-26T23:30:08.360Z,94217.75
2023-02-26T23:32:35.288Z,94198.50
2023-02-26T23:35:02.168Z,94209.38
2023-02-26T23:37:29.320Z,94222.91
2023-02-26T23:39:56.943Z,94217.19
2023-02-26T23:42:23.590Z,94196.00
2023-02-26T23:44:50.431Z,94187.75
2023-02-26T23:47:17.146Z,94210.97
2023-02-26T23:49:43.967Z,94219.78
2023-02-26T23:52:10.716Z,94200.66
2023-02-26T23:54:39.816Z,94210.63
2023-02-26T23:57:06.821Z,94228.78
2023-02-26T23:59:33.904Z,94210.91
